Time;durP1;ratioP1;P1;durP2;ratioP2;P2;SDS_P1;SDS_P2;PMS_P1;PMS_P2;Temp;Humidity;BMP_temperature;BMP_pressure;BME280_temperature;BME280_humidity;BME280_pressure;Samples;Min_cycle;Max_cycle;Signal;HPM_P1;HPM_P2
2022/12/29 00:02:16;;;;;;;13.57;7.30;;;;;;;;;;10413479;28;20200;-65
2022/12/29 00:07:17;;;;;;;11.40;7.20;;;;;;;;;;10413280;28;20045;-66
2022/12/29 00:12:17;;;;;;;13.80;6.72;;;;;;;;;;10412318;28;20020;-67
2022/12/29 00:17:18;;;;;;;10.38;6.88;;;;;;;;;;10412946;28;20039;-65
2022/12/29 00:54:11;;;;;;;;;;;;;;;;;;10412865;28;19913;-63
2022/12/29 00:59:12;;;;;;;11.07;6.47;;;;;;;;;;10411915;28;20368;-66
2022/12/29 01:04:12;;;;;;;9.25;6.82;;;;;;;;;;10408859;28;20022;-64
2022/12/29 01:14:32;;;;;;;9.00;5.57;;;;;;;;;;10408375;28;20037;-63
2022/12/29 01:19:32;;;;;;;8.45;5.88;;;;;;;;;;10410810;28;20038;-63
2022/12/29 01:24:32;;;;;;;8.98;5.70;;;;;;;;;;10398075;28;20071;-63
2022/12/29 01:29:32;;;;;;;8.25;5.40;;;;;;;;;;10410510;28;20068;-62
2022/12/29 01:34:33;;;;;;;8.77;5.80;;;;;;;;;;10409884;28;20378;-66
2022/12/29 01:39:33;;;;;;;9.32;5.93;;;;;;;;;;10396461;28;20032;-64
2022/12/29 01:44:45;;;;;;;10.32;6.55;;;;;;;;;;10409348;28;20057;-62
2022/12/29 01:49:45;;;;;;;9.15;6.03;;;;;;;;;;10410718;28;20104;-63
2022/12/29 01:54:49;;;;;;;10.63;6.00;;;;;;;;;;10409345;28;20104;-62
2022/12/29 01:59:53;;;;;;;7.85;5.50;;;;;;;;;;10409079;28;20489;-63
2022/12/29 02:04:55;;;;;;;9.95;5.85;;;;;;;;;;10409245;28;20152;-62
2022/12/29 02:09:55;;;;;;;11.43;6.18;;;;;;;;;;10408870;28;20021;-62
2022/12/29 02:14:59;;;;;;;8.73;5.78;;;;;;;;;;10400894;28;20034;-64
2022/12/29 02:20:16;;;;;;;9.30;5.70;;;;;;;;;;10408406;28;20038;-64
2022/12/29 02:25:19;;;;;;;7.38;5.05;;;;;;;;;;10408252;28;20096;-63
2022/12/29 02:30:38;;;;;;;8.55;5.30;;;;;;;;;;10407273;28;20501;-64
2022/12/29 02:35:38;;;;;;;;;;;;;;;;;;10405928;28;20018;-63
2022/12/29 02:40:57;;;;;;;6.80;4.88;;;;;;;;;;10407482;28;19920;-63
2022/12/29 02:46:08;;;;;;;7.57;4.82;;;;;;;;;;10407482;28;20025;-63
2022/12/29 02:51:19;;;;;;;8.18;5.22;;;;;;;;;;10407812;28;20091;-63
2022/12/29 02:56:19;;;;;;;6.85;5.15;;;;;;;;;;10407783;28;20120;-63
2022/12/29 03:01:26;;;;;;;8.27;5.43;;;;;;;;;;10407524;28;20029;-63
2022/12/29 03:06:40;;;;;;;9.13;5.13;;;;;;;;;;10407264;28;20100;-64
2022/12/29 03:12:10;;;;;;;9.95;5.10;;;;;;;;;;10403626;28;20389;-64
2022/12/29 03:17:18;;;;;;;8.18;5.50;;;;;;;;;;10393403;28;20037;-65
2022/12/29 03:22:27;;;;;;;5.73;4.67;;;;;;;;;;10407030;28;20029;-65
2022/12/29 03:27:32;;;;;;;7.13;5.28;;;;;;;;;;10406374;28;20574;-63
2022/12/29 03:32:43;;;;;;;7.35;5.40;;;;;;;;;;10406819;28;20473;-63
2022/12/29 03:37:58;;;;;;;7.65;4.72;;;;;;;;;;10406234;28;20022;-63
2022/12/29 03:42:58;;;;;;;6.97;5.20;;;;;;;;;;10406276;28;20136;-64
2022/12/29 03:47:59;;;;;;;5.25;4.40;;;;;;;;;;10411860;28;20040;-62
2022/12/29 03:52:59;;;;;;;9.43;6.20;;;;;;;;;;10414128;28;20060;-63
2022/12/29 03:57:59;;;;;;;6.70;5.20;;;;;;;;;;10413828;28;20087;-63
2022/12/29 04:03:00;;;;;;;7.03;4.90;;;;;;;;;;10413892;28;20056;-63
2022/12/29 04:08:00;;;;;;;7.40;5.00;;;;;;;;;;10413182;28;20123;-64
2022/12/29 04:13:00;;;;;;;5.43;4.10;;;;;;;;;;10408922;28;20036;-63
2022/12/29 04:18:00;;;;;;;6.60;4.72;;;;;;;;;;10413126;28;20117;-63
2022/12/29 04:23:05;;;;;;;6.07;4.40;;;;;;;;;;10413027;28;20082;-68
2022/12/29 04:28:07;;;;;;;7.65;4.60;;;;;;;;;;10412189;28;20406;-66
2022/12/29 04:33:07;;;;;;;7.85;4.72;;;;;;;;;;10412789;28;20116;-64
2022/12/29 04:38:08;;;;;;;7.60;4.50;;;;;;;;;;10412380;28;20032;-64
2022/12/29 04:43:09;;;;;;;5.38;4.75;;;;;;;;;;10411927;28;20362;-64
2022/12/29 04:48:10;;;;;;;5.93;4.13;;;;;;;;;;10411845;28;20026;-64
2022/12/29 04:53:10;;;;;;;5.22;4.35;;;;;;;;;;10412088;28;20033;-64
2022/12/29 04:58:10;;;;;;;6.43;4.65;;;;;;;;;;10411249;28;20397;-63
2022/12/29 05:03:11;;;;;;;6.40;4.45;;;;;;;;;;10412129;28;20558;-65
2022/12/29 05:08:11;;;;;;;7.47;4.53;;;;;;;;;;10411016;28;20473;-68
2022/12/29 05:13:11;;;;;;;5.93;4.38;;;;;;;;;;10406647;28;20042;-66
2022/12/29 05:18:11;;;;;;;5.43;4.18;;;;;;;;;;10410821;28;20372;-63
2022/12/29 05:23:12;;;;;;;5.50;4.07;;;;;;;;;;10410558;28;20029;-65
2022/12/29 05:28:13;;;;;;;6.90;4.60;;;;;;;;;;10410173;28;20049;-63
2022/12/29 05:33:13;;;;;;;5.90;4.53;;;;;;;;;;10410307;28;20470;-68
2022/12/29 05:38:13;;;;;;;6.55;4.40;;;;;;;;;;10410236;28;20030;-69
2022/12/29 05:43:13;;;;;;;5.07;4.03;;;;;;;;;;10409704;28;20029;-67
2022/12/29 05:48:14;;;;;;;5.43;4.13;;;;;;;;;;10409357;28;20033;-69
2022/12/29 05:53:14;;;;;;;6.13;4.20;;;;;;;;;;10409235;28;20026;-69
2022/12/29 05:58:15;;;;;;;6.05;4.32;;;;;;;;;;10409082;28;20112;-65
2022/12/29 06:03:15;;;;;;;6.55;4.10;;;;;;;;;;10408946;28;20511;-67
2022/12/29 06:08:15;;;;;;;5.53;3.97;;;;;;;;;;10408133;28;20037;-64
2022/12/29 06:13:16;;;;;;;6.38;4.22;;;;;;;;;;10403198;28;20029;-66
2022/12/29 06:18:16;;;;;;;5.13;3.97;;;;;;;;;;10408316;28;20049;-66
2022/12/29 06:23:18;;;;;;;6.63;4.30;;;;;;;;;;10408057;28;20031;-66
2022/12/29 06:28:18;;;;;;;7.75;4.07;;;;;;;;;;10407856;28;20513;-63
2022/12/29 06:33:18;;;;;;;13.40;3.78;;;;;;;;;;10407975;28;20023;-63
2022/12/29 06:38:19;;;;;;;14.67;4.93;;;;;;;;;;10405532;28;20060;-63
2022/12/29 06:43:19;;;;;;;9.05;4.70;;;;;;;;;;10403113;28;20493;-63
2022/12/29 06:48:22;;;;;;;9.95;4.85;;;;;;;;;;10397414;28;20063;-65
2022/12/29 06:53:22;;;;;;;8.07;4.53;;;;;;;;;;10407122;28;20033;-65
2022/12/29 06:58:22;;;;;;;8.43;4.18;;;;;;;;;;10403891;28;20099;-64
2022/12/29 07:03:22;;;;;;;5.05;4.53;;;;;;;;;;10397450;28;20032;-63
2022/12/29 07:08:23;;;;;;;11.05;5.05;;;;;;;;;;10405401;28;20029;-63
2022/12/29 07:13:23;;;;;;;17.15;5.40;;;;;;;;;;10397516;28;20028;-64
2022/12/29 07:18:24;;;;;;;9.70;5.15;;;;;;;;;;10405411;28;20124;-63
2022/12/29 07:23:24;;;;;;;7.70;5.00;;;;;;;;;;10410948;28;20037;-64
2022/12/29 07:28:24;;;;;;;8.47;5.20;;;;;;;;;;10412311;28;20260;-64
2022/12/29 07:33:24;;;;;;;8.93;4.93;;;;;;;;;;10411419;28;20033;-65
2022/12/29 07:38:25;;;;;;;7.00;4.90;;;;;;;;;;10408026;28;20113;-64
2022/12/29 07:43:25;;;;;;;8.20;4.63;;;;;;;;;;10404442;28;20038;-64
2022/12/29 07:48:26;;;;;;;9.40;4.82;;;;;;;;;;10413109;28;20030;-64
2022/12/29 07:53:26;;;;;;;6.17;4.90;;;;;;;;;;10412441;28;20470;-64
2022/12/29 07:58:26;;;;;;;7.22;4.90;;;;;;;;;;10401059;28;20478;-64
2022/12/29 08:03:26;;;;;;;9.57;4.80;;;;;;;;;;10410827;28;20026;-64
2022/12/29 08:08:27;;;;;;;7.85;4.45;;;;;;;;;;10409936;28;20142;-64
2022/12/29 08:13:27;;;;;;;5.35;4.18;;;;;;;;;;10409270;28;20021;-64
2022/12/29 08:18:27;;;;;;;11.03;4.70;;;;;;;;;;10412358;28;20017;-63
2022/12/29 08:23:27;;;;;;;6.45;4.40;;;;;;;;;;10402752;28;20033;-62
2022/12/29 08:28:28;;;;;;;6.45;4.32;;;;;;;;;;10411338;28;20041;-61
2022/12/29 08:33:29;;;;;;;11.65;4.70;;;;;;;;;;10406001;28;20025;-62
2022/12/29 08:38:29;;;;;;;16.80;5.10;;;;;;;;;;10405728;28;20075;-63
2022/12/29 08:43:30;;;;;;;15.57;5.03;;;;;;;;;;10397468;28;20125;-62
2022/12/29 08:48:30;;;;;;;19.33;5.15;;;;;;;;;;10399369;28;20033;-60
2022/12/29 08:53:30;;;;;;;36.67;5.45;;;;;;;;;;10408511;28;20034;-61
2022/12/29 08:58:31;;;;;;;34.95;5.45;;;;;;;;;;10410113;28;20120;-61
2022/12/29 09:03:31;;;;;;;16.60;4.90;;;;;;;;;;10402809;28;20022;-60
2022/12/29 09:08:31;;;;;;;19.92;5.18;;;;;;;;;;10409981;28;20033;-60
2022/12/29 09:13:32;;;;;;;16.08;5.20;;;;;;;;;;10405994;28;20029;-62
2022/12/29 09:18:32;;;;;;;8.75;5.05;;;;;;;;;;10410825;28;20436;-62
2022/12/29 09:23:33;;;;;;;11.30;5.40;;;;;;;;;;10403240;28;20392;-61
2022/12/29 09:28:34;;;;;;;12.27;4.85;;;;;;;;;;10410262;28;20390;-60
2022/12/29 09:33:34;;;;;;;8.80;5.13;;;;;;;;;;10409738;28;20025;-61
2022/12/29 09:38:34;;;;;;;9.30;4.97;;;;;;;;;;10408527;28;20049;-61
2022/12/29 09:43:46;;;;;;;8.70;5.22;;;;;;;;;;10408992;28;20272;-61
2022/12/29 09:48:52;;;;;;;12.35;5.43;;;;;;;;;;10402932;28;20092;-61
2022/12/29 09:53:58;;;;;;;11.40;5.65;;;;;;;;;;10408663;28;20432;-61
2022/12/29 09:59:10;;;;;;;9.40;5.35;;;;;;;;;;10408993;28;20084;-61
2022/12/29 10:04:11;;;;;;;13.63;5.40;;;;;;;;;;10408584;28;20029;-61
2022/12/29 10:09:31;;;;;;;11.63;5.28;;;;;;;;;;10409035;28;20037;-61
2022/12/29 10:14:50;;;;;;;14.00;5.80;;;;;;;;;;10396847;28;20362;-62
2022/12/29 10:20:05;;;;;;;7.18;5.07;;;;;;;;;;10406950;28;20170;-62
2022/12/29 10:25:26;;;;;;;10.50;4.90;;;;;;;;;;10397204;28;20227;-62
2022/12/29 10:30:26;;;;;;;8.80;5.25;;;;;;;;;;10408042;28;20342;-61
2022/12/29 10:35:32;;;;;;;8.77;5.53;;;;;;;;;;10408053;28;20241;-61
2022/12/29 10:40:53;;;;;;;10.85;4.97;;;;;;;;;;10408240;28;20013;-61
2022/12/29 10:45:54;;;;;;;10.65;5.18;;;;;;;;;;10399474;28;20079;-61
2022/12/29 10:50:56;;;;;;;7.30;5.07;;;;;;;;;;10407863;28;20388;-61
2022/12/29 10:55:58;;;;;;;8.77;5.20;;;;;;;;;;10407234;28;20485;-61
2022/12/29 11:00:59;;;;;;;6.75;5.03;;;;;;;;;;10407921;28;20200;-61
2022/12/29 11:06:10;;;;;;;7.72;5.47;;;;;;;;;;10407488;28;20204;-61
2022/12/29 11:11:10;;;;;;;7.80;4.43;;;;;;;;;;10401644;28;20088;-61
2022/12/29 11:16:11;;;;;;;6.72;4.47;;;;;;;;;;10403544;28;20034;-61
2022/12/29 11:21:46;;;;;;;6.85;4.38;;;;;;;;;;10404977;28;20124;-61
2022/12/29 11:26:48;;;;;;;5.88;4.30;;;;;;;;;;10276900;28;20492;-62
2022/12/29 11:31:49;;;;;;;9.40;4.90;;;;;;;;;;10278516;28;20045;-63
2022/12/29 11:36:51;;;;;;;6.68;4.45;;;;;;;;;;10279335;28;20042;-62
2022/12/29 11:41:52;;;;;;;6.50;4.43;;;;;;;;;;10278092;28;20985;-60
2022/12/29 11:46:53;;;;;;;5.65;4.70;;;;;;;;;;10277690;28;20255;-61
2022/12/29 11:51:57;;;;;;;5.32;4.60;;;;;;;;;;10279099;28;20215;-62
2022/12/29 11:56:57;;;;;;;5.53;4.30;;;;;;;;;;10278730;28;20039;-63
2022/12/29 12:01:58;;;;;;;8.70;4.68;;;;;;;;;;10406045;28;20044;-62
2022/12/29 12:07:03;;;;;;;10.93;5.03;;;;;;;;;;10406057;28;20083;-63
2022/12/29 12:12:04;;;;;;;5.88;4.30;;;;;;;;;;10404917;28;20064;-61
2022/12/29 12:17:19;;;;;;;8.60;4.65;;;;;;;;;;10408568;28;20113;-61
2022/12/29 12:22:24;;;;;;;10.57;4.82;;;;;;;;;;10411485;28;20029;-61
2022/12/29 12:27:39;;;;;;;7.45;4.78;;;;;;;;;;10411689;28;20053;-60
2022/12/29 12:32:58;;;;;;;6.72;4.50;;;;;;;;;;10411875;28;20112;-62
2022/12/29 12:38:13;;;;;;;12.90;4.30;;;;;;;;;;10410506;28;20528;-60
2022/12/29 12:43:28;;;;;;;10.30;4.88;;;;;;;;;;10412860;28;20032;-62
2022/12/29 12:48:43;;;;;;;20.90;5.40;;;;;;;;;;10409529;28;20592;-62
2022/12/29 12:53:46;;;;;;;25.73;5.47;;;;;;;;;;10409547;28;20481;-64
2022/12/29 12:58:49;;;;;;;15.43;5.30;;;;;;;;;;10409172;28;20078;-62
2022/12/29 13:03:59;;;;;;;16.48;5.95;;;;;;;;;;10409147;28;20060;-66
2022/12/29 13:09:16;;;;;;;11.88;5.03;;;;;;;;;;10410832;28;20147;-66
2022/12/29 13:14:19;;;;;;;10.88;5.90;;;;;;;;;;10403694;28;20380;-66
2022/12/29 13:19:25;;;;;;;14.63;5.88;;;;;;;;;;10407022;28;20104;-66
2022/12/29 13:24:34;;;;;;;13.73;5.57;;;;;;;;;;10408495;28;20041;-66
2022/12/29 13:29:38;;;;;;;7.70;4.88;;;;;;;;;;10410383;28;20052;-64
2022/12/29 13:34:45;;;;;;;10.40;5.35;;;;;;;;;;10409917;28;20116;-65
2022/12/29 13:39:51;;;;;;;11.00;5.13;;;;;;;;;;10410433;28;20053;-66
2022/12/29 13:44:57;;;;;;;11.15;6.10;;;;;;;;;;10409335;28;20025;-60
2022/12/29 13:49:59;;;;;;;7.68;5.35;;;;;;;;;;10409942;28;20495;-59
2022/12/29 13:55:23;;;;;;;11.68;5.30;;;;;;;;;;10409599;28;20112;-60
2022/12/29 14:00:25;;;;;;;7.38;4.90;;;;;;;;;;10409789;28;20029;-60
2022/12/29 14:05:29;;;;;;;11.00;5.10;;;;;;;;;;10408870;28;20033;-60
2022/12/29 14:10:59;;;;;;;12.38;4.97;;;;;;;;;;10409430;28;20405;-59
2022/12/29 14:15:59;;;;;;;11.80;5.78;;;;;;;;;;10399729;28;20072;-59
2022/12/29 14:21:19;;;;;;;9.00;5.30;;;;;;;;;;10408895;28;20476;-64
2022/12/29 14:26:20;;;;;;;14.02;4.97;;;;;;;;;;10408352;28;20045;-67
2022/12/29 14:31:29;;;;;;;7.22;5.57;;;;;;;;;;10406227;28;20033;-65
2022/12/29 14:36:58;;;;;;;10.25;5.45;;;;;;;;;;10407045;28;20021;-65
2022/12/29 14:41:59;;;;;;;6.90;5.00;;;;;;;;;;10399195;28;20025;-65
2022/12/29 14:47:04;;;;;;;7.35;5.13;;;;;;;;;;10407507;28;20041;-64
2022/12/29 14:52:07;;;;;;;8.95;5.10;;;;;;;;;;10408232;28;20026;-66
2022/12/29 14:57:13;;;;;;;8.23;4.93;;;;;;;;;;10405611;28;20168;-66
2022/12/29 15:02:16;;;;;;;10.27;5.25;;;;;;;;;;10406233;28;20087;-65
2022/12/29 15:07:17;;;;;;;7.85;5.30;;;;;;;;;;10407237;28;20042;-65
2022/12/29 15:12:36;;;;;;;7.80;5.28;;;;;;;;;;10403708;28;20080;-65
2022/12/29 15:17:38;;;;;;;8.23;5.15;;;;;;;;;;10406884;28;20504;-65
2022/12/29 15:22:41;;;;;;;7.93;5.15;;;;;;;;;;10406954;28;20527;-65
2022/12/29 15:27:41;;;;;;;7.72;5.18;;;;;;;;;;10407290;28;20077;-64
2022/12/29 15:32:46;;;;;;;6.60;4.93;;;;;;;;;;10407227;28;20061;-66
2022/12/29 15:37:46;;;;;;;7.82;4.47;;;;;;;;;;10406696;28;20049;-65
2022/12/29 15:43:05;;;;;;;7.05;4.90;;;;;;;;;;10411670;28;20457;-60
2022/12/29 15:48:10;;;;;;;6.35;4.68;;;;;;;;;;10414093;28;20116;-61
2022/12/29 15:53:11;;;;;;;11.75;5.35;;;;;;;;;;10414412;28;20458;-61
2022/12/29 15:58:25;;;;;;;6.32;4.93;;;;;;;;;;10415035;28;20041;-61
2022/12/29 16:03:27;;;;;;;6.57;4.97;;;;;;;;;;10413166;28;20454;-61
2022/12/29 16:08:32;;;;;;;5.22;4.47;;;;;;;;;;10413606;28;20087;-60
2022/12/29 16:13:38;;;;;;;7.25;4.55;;;;;;;;;;10407471;28;20377;-60
2022/12/29 16:18:39;;;;;;;7.20;4.70;;;;;;;;;;10413132;28;20099;-62
2022/12/29 16:23:40;;;;;;;8.00;5.57;;;;;;;;;;10413184;28;20079;-64
2022/12/29 16:28:44;;;;;;;7.18;4.90;;;;;;;;;;10412664;28;20052;-64
2022/12/29 16:33:46;;;;;;;7.95;4.28;;;;;;;;;;10412702;28;20543;-64
2022/12/29 16:38:46;;;;;;;6.28;4.65;;;;;;;;;;10412475;28;20065;-65
2022/12/29 16:43:46;;;;;;;5.22;4.55;;;;;;;;;;10412567;28;20024;-65
2022/12/29 16:48:49;;;;;;;6.95;4.50;;;;;;;;;;10411988;28;20469;-64
2022/12/29 16:53:51;;;;;;;7.55;4.80;;;;;;;;;;10411648;28;20040;-64
2022/12/29 16:58:55;;;;;;;8.20;5.05;;;;;;;;;;10411664;28;20080;-65
2022/12/29 17:04:00;;;;;;;7.05;4.78;;;;;;;;;;10400569;28;20045;-65
2022/12/29 17:09:01;;;;;;;5.72;4.93;;;;;;;;;;10401336;28;20030;-61
2022/12/29 17:14:01;;;;;;;6.53;4.83;;;;;;;;;;10407786;28;20033;-60
2022/12/29 17:19:01;;;;;;;6.20;5.15;;;;;;;;;;10411331;28;20083;-60
2022/12/29 17:24:04;;;;;;;6.72;4.82;;;;;;;;;;10411125;28;20033;-60
2022/12/29 17:29:04;;;;;;;8.13;5.45;;;;;;;;;;10393028;28;20080;-61
2022/12/29 17:34:04;;;;;;;8.23;5.18;;;;;;;;;;10404707;28;20048;-61
2022/12/29 17:39:05;;;;;;;7.70;5.07;;;;;;;;;;10406223;28;20267;-60
2022/12/29 17:44:05;;;;;;;9.73;5.25;;;;;;;;;;10408324;28;20029;-61
2022/12/29 17:49:09;;;;;;;6.80;5.32;;;;;;;;;;10406673;28;20111;-60
2022/12/29 17:54:27;;;;;;;12.32;5.85;;;;;;;;;;10409463;28;20032;-60
2022/12/29 17:59:28;;;;;;;15.18;5.82;;;;;;;;;;10409428;28;20112;-60
2022/12/29 18:04:28;;;;;;;8.48;5.47;;;;;;;;;;10408035;28;20090;-59
2022/12/29 18:09:28;;;;;;;22.50;6.13;;;;;;;;;;10408894;28;20380;-63
2022/12/29 18:14:28;;;;;;;9.60;5.95;;;;;;;;;;10404652;28;20032;-61
2022/12/29 18:19:29;;;;;;;8.52;6.00;;;;;;;;;;10408241;28;20036;-63
2022/12/29 18:24:29;;;;;;;12.93;6.10;;;;;;;;;;10403042;28;20029;-60
2022/12/29 18:29:29;;;;;;;10.05;6.35;;;;;;;;;;10408051;28;20072;-60
2022/12/29 18:34:30;;;;;;;13.10;7.50;;;;;;;;;;10404646;28;20040;-60
2022/12/29 18:39:30;;;;;;;14.98;7.65;;;;;;;;;;10398369;28;20033;-61
2022/12/29 18:44:30;;;;;;;10.25;6.47;;;;;;;;;;10398221;28;20029;-65
2022/12/29 18:49:30;;;;;;;8.77;6.50;;;;;;;;;;10404172;28;20029;-64
2022/12/29 18:54:32;;;;;;;8.98;6.80;;;;;;;;;;10403578;28;20215;-64
2022/12/29 18:59:32;;;;;;;17.80;7.18;;;;;;;;;;10403908;28;20032;-66
2022/12/29 19:04:32;;;;;;;14.00;7.55;;;;;;;;;;10396136;28;20030;-66
2022/12/29 19:09:33;;;;;;;13.07;6.72;;;;;;;;;;10405358;28;20025;-66
2022/12/29 19:14:33;;;;;;;12.00;7.65;;;;;;;;;;10402393;28;20033;-64
2022/12/29 19:19:33;;;;;;;10.52;7.18;;;;;;;;;;10415221;28;20484;-66
2022/12/29 19:24:33;;;;;;;14.65;7.50;;;;;;;;;;10414417;28;20047;-67
2022/12/29 19:29:34;;;;;;;12.20;7.63;;;;;;;;;;10415168;28;20041;-64
2022/12/29 19:34:34;;;;;;;13.95;7.60;;;;;;;;;;10413370;28;20101;-66
2022/12/29 19:39:34;;;;;;;11.85;7.55;;;;;;;;;;10414528;28;20310;-67
2022/12/29 19:44:34;;;;;;;13.27;7.78;;;;;;;;;;10412575;28;20497;-67
2022/12/29 19:49:35;;;;;;;13.75;8.18;;;;;;;;;;10410728;28;20253;-66
2022/12/29 19:54:35;;;;;;;11.93;7.75;;;;;;;;;;10414055;28;20032;-66
2022/12/29 19:59:35;;;;;;;11.10;7.18;;;;;;;;;;10399736;28;20029;-66
2022/12/29 20:04:36;;;;;;;33.50;9.77;;;;;;;;;;10413271;28;20025;-62
2022/12/29 20:09:36;;;;;;;22.73;8.93;;;;;;;;;;10413645;28;20462;-60
2022/12/29 20:14:36;;;;;;;24.75;7.88;;;;;;;;;;10409344;28;20108;-61
2022/12/29 20:19:37;;;;;;;17.45;7.90;;;;;;;;;;10412795;28;20040;-63
2022/12/29 20:24:38;;;;;;;15.43;8.70;;;;;;;;;;10410667;28;20168;-66
2022/12/29 20:29:41;;;;;;;15.57;8.13;;;;;;;;;;10411230;28;20128;-66
2022/12/29 20:34:42;;;;;;;14.68;8.85;;;;;;;;;;10404807;28;20049;-60
2022/12/29 20:39:43;;;;;;;15.13;9.13;;;;;;;;;;10413013;28;20473;-61
2022/12/29 20:44:44;;;;;;;17.23;8.88;;;;;;;;;;10412814;28;20021;-60
2022/12/29 20:49:44;;;;;;;13.85;8.85;;;;;;;;;;10412305;28;20036;-62
2022/12/29 20:54:44;;;;;;;15.63;8.63;;;;;;;;;;10412304;28;20027;-59
2022/12/29 20:59:44;;;;;;;17.88;9.30;;;;;;;;;;10412065;28;20021;-61
2022/12/29 21:04:45;;;;;;;17.48;10.35;;;;;;;;;;10412007;28;20022;-61
2022/12/29 21:09:45;;;;;;;17.93;9.63;;;;;;;;;;10411394;28;20033;-60
2022/12/29 21:14:45;;;;;;;15.05;9.75;;;;;;;;;;10409733;28;20481;-61
2022/12/29 21:19:46;;;;;;;15.75;9.30;;;;;;;;;;10411582;28;20477;-61
2022/12/29 21:24:46;;;;;;;16.23;9.88;;;;;;;;;;10411381;28;20104;-66
2022/12/29 21:29:46;;;;;;;19.00;11.07;;;;;;;;;;10410408;28;20050;-65
2022/12/29 21:34:46;;;;;;;18.52;9.40;;;;;;;;;;10410466;28;20025;-66
2022/12/29 21:39:47;;;;;;;17.98;10.25;;;;;;;;;;10410301;28;20022;-65
2022/12/29 21:50:06;;;;;;;19.33;10.88;;;;;;;;;;10409932;28;20046;-65
2022/12/29 21:55:07;;;;;;;17.30;11.00;;;;;;;;;;10408515;28;20033;-66
2022/12/29 22:16:06;;;;;;;17.13;11.02;;;;;;;;;;10406293;28;20025;-60
2022/12/29 22:21:08;;;;;;;19.80;10.90;;;;;;;;;;10408525;28;20141;-66
2022/12/29 22:26:09;;;;;;;19.83;10.98;;;;;;;;;;10408301;28;20488;-65
2022/12/29 22:31:20;;;;;;;16.45;11.20;;;;;;;;;;10408372;28;20033;-64
2022/12/29 22:36:20;;;;;;;19.10;11.23;;;;;;;;;;10405043;28;20391;-66
2022/12/29 22:41:21;;;;;;;21.10;11.93;;;;;;;;;;10407947;28;20033;-66
2022/12/29 22:46:21;;;;;;;17.13;11.43;;;;;;;;;;10407875;28;20044;-65
2022/12/29 22:51:22;;;;;;;15.13;11.20;;;;;;;;;;10406999;28;20087;-64
2022/12/29 22:56:22;;;;;;;16.98;11.55;;;;;;;;;;10402768;28;20277;-63
2022/12/29 23:01:22;;;;;;;18.92;11.63;;;;;;;;;;10401566;28;20646;-63
2022/12/29 23:06:23;;;;;;;19.98;11.98;;;;;;;;;;10404105;28;20129;-64
2022/12/29 23:11:23;;;;;;;18.05;11.15;;;;;;;;;;10402724;28;20025;-67
2022/12/29 23:16:24;;;;;;;19.37;11.50;;;;;;;;;;10402602;28;20083;-62
2022/12/29 23:21:25;;;;;;;21.98;12.05;;;;;;;;;;10406795;28;20168;-63
2022/12/29 23:26:26;;;;;;;26.00;11.48;;;;;;;;;;10405540;28;20052;-63
2022/12/29 23:31:27;;;;;;;22.27;11.88;;;;;;;;;;10403817;28;20461;-63
2022/12/29 23:36:28;;;;;;;24.35;12.07;;;;;;;;;;10407142;28;20068;-62
2022/12/29 23:41:28;;;;;;;19.75;11.10;;;;;;;;;;10406651;28;20018;-64
2022/12/29 23:46:29;;;;;;;24.07;12.73;;;;;;;;;;10405296;28;20037;-62
2022/12/29 23:51:30;;;;;;;19.00;11.50;;;;;;;;;;10407142;28;20025;-63
2022/12/29 23:56:30;;;;;;;20.55;12.13;;;;;;;;;;10405460;28;20025;-61
